Terminal Aerodrome Forecast
Issued by NWS Pittsburgh, PA

Current Version | Previous Version | Graphics & Text | Print | Product List | Glossary On
Versions: 1 2 3 4 5 6 7 8 9 10 11 12 13 14 15 16 17 18 19 20 21 22 23 24 25 26 27 28 29 30 31 32 33
000
FTUS41 KPBZ 012100 AAA
TAFPIT
TAF AMD
KPIT 012104Z 0121/0224 21009KT 2SM -SNRA OVC007
     FM012300 24008KT 3SM -SNRA SCT008 OVC012
      TEMPO 0123/0202 2SM -SNRA OVC008
     FM020200 28006KT 3SM -SHSN OVC008
     FM020700 28010KT 6SM -SN OVC020
     FM021300 27010KT P6SM OVC025=

USA.gov is the U.S. government's official web portal to all federal, state and local government web resources and services.